Hauptseite
METAR-TAF:

METAR-TAF

Flughäfen :

Flugplatz Schwäbisch Hall-Hessental (Adolf Würth Airport)

Schwäbisch Hall, Deutschland

Breite: 49-07-06N, Länge: 9-47-02E, Höhe: 398 m

Beobachtung

Neuester Wetterbericht von vor 9 Stunden und 19 Minuten, um 19:50 UTC
Wind 5 kt aus Ost/Nordost
Temperatur 15°C
Luftfeuchtigkeit 67%
Luftdruck 1017 hPa
Sichtweite 10 km oder mehr
keine Wolken unter 1500 m und keine Kumulonimbus oder Gewitterwolken

METAR: EDTY 201950Z 07005KT CAVOK 15/09 Q1017

Zeit: 07:09 (05:09 UTC)

Prognose

Neuester Wetterbericht von vor 12 Stunden und 9 Minuten, um 17:00 UTC
Gültige Prognose vom 20 um 18 UTC bis 21 um 03 UTC
Wind 5 kt aus Nordost
Sichtweite 10 km oder mehr
Leicht bewölkt in der Höhe von 2000 ft

TAF: EDTY 201700Z 2018/2103 05005KT 9999 FEW020

Wetterbeobachtungen und Prognosen von mehr als 4000 Flughäfen (METAR und TAF Bericht).

Die verfügbaren Stationen werden durch gelbe und rote Markierungen auf der Karte dargestellt.

Führen Sie die Maus auf sie, um den Namen der Station zu sehen.

Darauf klicken, um die Beobachtung von Wetterbeobachtungen und Prognosen zu sehen.

Um die Karte zu ändern : klicken Sie auf den grünen Tasten mit einem schwarzen Kreuz Zum Vergrößern, auf den grünen Button mit einem Gedankenstrich zu verkleinern, oder auf die grünen Pfeile für benachbarte Karten.


METAR-TAF: